Tiempo atmosférico en la estación meteorológica de Calamocha, Teruel (890 m.)

Fecha
DESCASC
Temp. máxima en grados centígrados (hora)
DESCASC
Temp. mínima en grados centígrados (hora)
DESCASC
Temp. media en grados centígrados
DESCASC
Racha de viento máxima en m/sg (hora)
DESCASC
Velocidad máxima media en intervalos de 10 minutos(hora)
DESCASC
Precipitaciones diarias en mm
DESCASC
Precipitaciones de 00:00 a 06:00 en mm
DESCASC
Precipitaciones de 06:00 a 12:00 en mm
DESCASC
Precipitaciones de 12:00 a 18:00 en mm
DESCASC
Precipitaciones de 18:00 a 24:00 en mm
DESCASC
23-11-2017 19.9 (14:30) 1.6 (03:30) 10.7 12.78 (14:50) 5.83 (13:20) 0 0 0 0 0
22-11-2017 19.1 (15:40) -5.4 (07:10) 6.9 6.67 (15:20) 3.89 (23:59) 0 0 0 0 0
21-11-2017 18.6 (15:40) -4.8 (08:20) 6.9 3.33 (12:00) 2.22 (12:10) 0 0 0 0 0
20-11-2017 18.2 (15:50) -5.2 (07:50) 6.5 3.06 (10:50) 1.67 (10:50) 0 0 0 0 0
19-11-2017 17.3 (16:40) -5.7 (-00:0) 5.8 3.33 (11:20) 1.67 (11:20) 0 0 0 0 0
18-11-2017 15.8 (15:00) -3.7 (-00:0) 6.1 5.28 (14:20) 2.5 (12:50) 0 0 0 0 0
17-11-2017 18.1 (15:50) -3.9 (-00:0) 7.1 2.78 (10:40) 1.67 (23:30) 0 0 0 0 0
16-11-2017 16.9 (16:20) -4.5 (-00:0) 6.2 4.72 (16:20) 2.22 (16:50) 0 0 0 0 0
15-11-2017 15.5 (16:10) -6.5 (-00:0) 4.5 3.33 (11:20) 1.94 (11:10) 0 0 0 0 0
14-11-2017 11.2 (15:10) -3.4 (-00:0) 3.9 6.67 (15:50) 3.61 (16:50) 0 0 0 0 0
13-11-2017 8.6 (14:10) -1.2 (-00:0) 3.7 16.11 (11:20) 6.67 (11:20) 0 0 0 0 0
12-11-2017 15.3 (15:20) -2.3 (-00:0) 6.5 7.78 (15:50) 3.33 (16:10) 0 0 0 0 0
11-11-2017 16.1 (15:10) 3.2 (00:00) 9.7 8.33 (00:10) 4.44 (16:10) 0 0 0 0 0
10-11-2017 12.7 (14:40) -1.1 (-00:0) 5.8 12.5 (17:10) 5.83 (21:40) 0 0 0 0 0
09-11-2017 -- (--) -- (--) -- 12.78 (13:50) 5.83 (12:40) 0 0 0 0 0
08-11-2017 12.6 (14:00) 0.4 (00:00) 6.5 7.78 (17:50) 4.44 (17:20) 0 0 0 0 0
07-11-2017 14.7 (16:40) -0.3 (00:00) 7.2 9.17 (01:30) 2.78 (12:50) 0 0 0 0 0
06-11-2017 10.4 (15:10) 3.4 (00:00) 6.9 12.22 (20:40) 5.83 (20:40) 2.2 1.8 0.4 0 0
05-11-2017 13.9 (15:10) 4.7 (00:00) 9.3 10.83 (17:00) 5 (14:10) 1.4 1.4 0 0 0
04-11-2017 15.1 (12:50) 7.9 (00:00) 11.5 8.89 (15:10) 4.44 (13:50) 2.6 0.2 0 2.2 0.2
03-11-2017 21.4 (15:40) 8.8 (00:00) 15.1 7.22 (14:30) 3.89 (13:20) 0 0 0 0 0
02-11-2017 20.6 (16:50) 5.5 (05:50) 13.1 6.94 (11:50) 4.17 (11:40) 0 0 0 0 0
01-11-2017 21.5 (15:40) 3.5 (00:00) 12.5 5.28 (23:10) 3.33 (23:20) 0 0 0 0 0
31-10-2017 20.7 (15:30) 1.1 (00:00) 10.9 6.67 (14:00) 3.61 (15:40) 0 0 0 0 0
30-10-2017 18.2 (15:10) 3 (00:00) 10.6 8.33 (18:30) 4.44 (16:30) 0 0 0 0 0
29-10-2017 18.9 (14:40) -1 (-00:0) 8.9 7.78 (20:20) 3.89 (17:40) 0 0 0 0 0
28-10-2017 19 (15:10) 6.1 (00:00) 12.5 8.33 (12:10) 4.72 (12:10) 0 0 0 0 0
27-10-2017 24.4 (17:10) 2.3 (00:00) 13.3 9.17 (18:20) 4.72 (17:30) 0 0 0 0 0
26-10-2017 28.8 (16:50) 4.1 (00:00) 16.4 4.44 (17:00) 2.78 (09:50) 0 0 0 0 0
25-10-2017 29.3 (17:30) 3.2 (00:00) 16.2 6.67 (19:40) 4.72 (19:40) 0 0 0 0 0

Gráficas

Temp. máximas Temp. mínimas Temp. medias Precipitaciones Rachas de viento máximas Velocidades máximas media en intervalos de 10 minutos

Datos horarios

Fecha y hora oficial Temperatura (ºC) Velocidad del viento (km/h) Dirección del viento Racha (km/h) Dirección de racha Precipitación (mm) Presión (hPa) Tendencia (hPa) Humedad (%)
2017-11-23 23:00:00 8.5 10 Sudeste 14 Sudeste 0 919.2 0.5 44
2017-11-23 22:00:00 9 6 Sudeste 12 Sudeste 0 919.2 0.9 42
2017-11-23 21:00:00 9.8 8 Sudeste 10 Sudeste 0 919 1 39
2017-11-23 20:00:00 11.2 8 Sur 16 Sur 0 918.7 1.3 35
2017-11-23 19:00:00 13.1 2 Sudoeste 13 Oeste 0 918.3 1.2 32
2017-11-23 18:00:00 14.9 8 Oeste 25 Oeste 0 918 1.2 28
2017-11-23 17:00:00 16.6 10 Oeste 28 Sudoeste 0 917.4 0.5 25
2017-11-23 16:00:00 18.2 19 Oeste 36 Oeste 0 917.1 0.1 23
2017-11-23 15:00:00 18.7 17 Oeste 46 Oeste 0 916.8 -0.5 23
2017-11-23 14:00:00 18.8 15 Oeste 41 Oeste 0 916.9 -0.4 27
2017-11-23 13:00:00 18.1 19 Oeste 44 Oeste 0 917 0.1 25
2017-11-23 12:00:00 18.4 16 Oeste 33 Oeste 0 917.3 1.1 25
2017-11-23 11:00:00 13.6 7 Sudeste 10 Sur 0 917.3 1.9 36
2017-11-23 10:00:00 10.1 2 Este 12 Sudeste 0 916.9 1.6 41
2017-11-23 09:00:00 7.7 10 Sudeste 17 Sur 0 916.2 0.5 45
2017-11-23 08:00:00 6.8 9 Sur 12 Sudeste 0 915.4 0.4 47
2017-11-23 07:00:00 6.6 5 Sudeste 14 Sudeste 0 915.3 0.6 46
2017-11-23 06:00:00 6.5 6 Este 13 Sudeste 0 915.7 1 46
2017-11-23 05:00:00 5.9 9 Sudeste 15 Sudeste 0 915 0.4 45
2017-11-23 04:00:00 3.7 11 Sudeste 15 Sudeste 0 914.7 0 52
2017-11-23 03:00:00 2.6 4 Sur 10 Sudeste 0 914.7 0.1 56
2017-11-23 02:00:00 3 8 Sudeste 10 Sudeste 0 914.6 0.2 52
2017-11-23 01:00:00 4.5 5 Sudeste 14 Sur 0 914.7 0.3 46
2017-11-23 00:00:00 4.3 14 Sudeste 19 Sudeste 0 914.6 0.3 46
2017-11-22 23:00:00 2.3 7 Sudeste 10 Sudeste 0 914.4 0.5 51
2017-11-22 22:00:00 3.7 4 Sudeste 7 Este 0 914.4 0.9 47
2017-11-22 21:00:00 4.5 0 Calma 10 Sudeste 0 914.3 1.2 44
2017-11-22 20:00:00 6.9 7 Sudeste 10 Sudeste 0 913.9 1 38
2017-11-22 19:00:00 8.4 5 Sur 10 Sudeste 0 913.5 0.2 37
2017-11-22 18:00:00 12.9 3 Sur 8 Sudoeste 0 913.1 -0.3 28
2017-11-22 17:00:00 18 5 Sudoeste 20 Oeste 0 912.9 -1.2 22
2017-11-22 16:00:00 19 7 Oeste 24 Noroeste 0 913.3 -1.6 21
2017-11-22 15:00:00 18.4 7 Noroeste 21 Oeste 0 913.4 -2.3 22
2017-11-22 14:00:00 17 4 Sur 10 Sudeste 0 914.1 -2.2 24
2017-11-22 13:00:00 13.8 8 Sudeste 11 Sudeste 0 914.9 -1.9 29
2017-11-22 12:00:00 9.7 5 Sudoeste 8 Sudoeste 0 915.7 -1.2 37
2017-11-22 11:00:00 5.8 7 Sur 16 Sudeste 0 916.3 -0.5 44
2017-11-22 10:00:00 1.5 6 Sudeste 11 Sudeste 0 916.8 0.1 54
2017-11-22 09:00:00 -4.4 2 Sudoeste 6 Sur 0 916.9 0.2 75
2017-11-22 08:00:00 -5.2 0 Calma 5 Sur 0 916.8 -0.4 77
2017-11-22 07:00:00 -5.3 2 Este 4 Este 0 916.7 -0.8 76
2017-11-22 06:00:00 -4.7 2 Sudeste 4 Nordeste 0 916.7 -1.4 73
2017-11-22 05:00:00 -4.1 0 Calma 5 Sudoeste 0 917.2 -1.1 72
2017-11-22 04:00:00 -3.3 0 Calma 9 Sur 0 917.5 -1.2 71
2017-11-22 03:00:00 -2.9 3 Sur 8 Sudeste 0 918.1 -0.9 67
2017-11-22 02:00:00 -2.4 3 Noroeste 8 Sudeste 0 918.3 -0.7 67
2017-11-22 01:00:00 -1.9 2 Oeste 6 Sur 0 918.7 -0.1 62
2017-11-22 00:00:00 -1 3 Sur 6 Sudeste 0 919 0.2 59
2017-11-21 23:00:00 -0.4 0 Calma 6 Este 0 919 0.2 56
2017-11-21 22:00:00 0.8 3 Este 5 Este 0 918.8 0 53
2017-11-21 21:00:00 3.1 4 Sur 8 Sur 0 918.8 0.2 46
2017-11-21 20:00:00 5 3 Oeste 5 Sur 0 918.8 0.4 40
2017-11-21 19:00:00 8.5 3 Sudoeste 6 Sur 0 918.8 0.3 32
2017-11-21 18:00:00 13.4 2 Oeste 11 Norte 0 918.6 -0.4 24
2017-11-21 17:00:00 16.5 5 Nordeste 10 Nordeste 0 918.4 -1.3 20
2017-11-21 16:00:00 18.1 5 Norte 10 Norte 0 918.5 -1.9 19
2017-11-21 15:00:00 18 3 Noroeste 9 Noroeste 0 919 -2.5 20
2017-11-21 14:00:00 16.6 4 Noroeste 8 Sudoeste 0 919.7 -2.2 23
2017-11-21 13:00:00 14.6 4 Sur 11 Sur 0 920.4 -1.7 27
2017-11-21 12:00:00 11.2 6 Sur 12 Sudeste 0 921.5 -0.5 32
2017-11-21 11:00:00 6.8 5 Sudoeste 10 Sur 0 921.9 0.1 41
2017-11-21 10:00:00 1.8 4 Sur 8 Sur 0 922.1 0.5 57
2017-11-21 09:00:00 -3 0 Calma 5 Sudeste 0 922 0.7 70
2017-11-21 08:00:00 -4.7 4 Sudeste 6 Sur 0 921.8 0.3 74
2017-11-21 07:00:00 -4.6 2 Este 3 Este 0 921.6 0 73
2017-11-21 06:00:00 -4.1 2 Nordeste 5 Sur 0 921.3 -0.5 71
2017-11-21 05:00:00 -3.2 3 Sur 6 Sur 0 921.5 -0.4 69
2017-11-21 04:00:00 -3.1 4 Sur 8 Sur 0 921.6 -0.4 67
2017-11-21 03:00:00 -3 3 Oeste 3 Sudoeste 0 921.8 -0.3 66
2017-11-21 02:00:00 -2.3 3 Sudoeste 4 Sudoeste 0 921.9 -0.2 65
2017-11-21 01:00:00 -1.6 0 Calma 7 Sur 0 922 0.1 60
2017-11-21 00:00:00 -1.1 0 Calma 4 Sur 0 922.1 0.4 59
2017-11-20 23:00:00 -0.1 0 Calma 3 Noroeste 0 922.1 0.7 55
2017-11-20 22:00:00 1.3 0 Calma 8 Sudeste 0 921.9 1.2 50
2017-11-20 21:00:00 3 0 Calma 6 Sur 0 921.7 1.3 47
2017-11-20 20:00:00 5 4 Sur 8 Sur 0 921.4 1.3 39
2017-11-20 19:00:00 8.2 2 Sur 5 Sur 0 920.7 0.5 33
2017-11-20 18:00:00 13 2 Sur 6 Noroeste 0 920.4 -0.1 24
2017-11-20 17:00:00 16.9 3 Norte 8 Noroeste 0 920.1 -1.1 20
2017-11-20 16:00:00 18 3 Noroeste 8 Oeste 0 920.2 -1.7 19
2017-11-20 15:00:00 16.8 4 Norte 8 Norte 0 920.5 -2.2 19
2017-11-20 14:00:00 16.2 3 Sur 8 Noroeste 0 921.2 -1.8 20
2017-11-20 13:00:00 13.6 4 Sudoeste 8 Sur 0 921.9 -0.8 24
2017-11-20 12:00:00 10.5 5 Sur 9 Sur 0 922.7 0.1 30
2017-11-20 11:00:00 6.6 6 Sur 11 Sur 0 923 0.8 37
2017-11-20 10:00:00 0.2 2 Sudoeste 9 Sudoeste 0 922.7 0.6 60
2017-11-20 09:00:00 -3.9 0 Calma 6 Sur 0 922.6 0.6 71
2017-11-20 08:00:00 -5.2 0 Calma 7 Sur 0 922.2 0.4 76
2017-11-20 07:00:00 -5.1 3 Sur 5 Sudeste 0 922.1 0.4 72
2017-11-20 06:00:00 -4.7 0 Calma 3 Norte 0 922 0 69
2017-11-20 05:00:00 -4.3 2 Norte 5 Sur 0 921.8 -0.2 73
2017-11-20 04:00:00 -4 0 Calma 4 Sur 0 921.7 -0.1 69
2017-11-20 03:00:00 -3.4 0 Calma 5 Sudeste 0 922 0 69
2017-11-20 02:00:00 -2.9 3 Sur 5 Sudeste 0 922 0.4 63
2017-11-20 01:00:00 -2.4 2 Norte 6 Sudoeste 0 921.8 0.3 65
2017-11-20 00:00:00 -1.8 3 Sudoeste 5 Sudoeste 0 922 0.8 64
2017-11-19 23:00:00 -0.7 3 Sur 6 Sur 0 921.6 0.8 57
2017-11-19 22:00:00 0.8 3 Sur 5 Sur 0 921.5 1.2 53
2017-11-19 21:00:00 2.1 3 Sur 5 Este 0 921.2 1.5 50
2017-11-19 20:00:00 4 5 Sudoeste 5 Sudoeste 0 920.8 1.3 46
2017-11-19 19:00:00 7.5 0 Calma 5 Oeste 0 920.3 1.1 36
2017-11-19 18:00:00 11.8 2 Este 9 Noroeste 0 919.7 0.5 29
2017-11-19 17:00:00 15.7 4 Norte 10 Noroeste 0 919.5 -0.3 22
2017-11-19 16:00:00 16.6 4 Noroeste 10 Noroeste 0 919.2 -1.3 21
2017-11-19 15:00:00 16 5 Noroeste 11 Norte 0 919.2 -2.1 16
2017-11-19 14:00:00 14.1 3 Norte 9 Sudoeste 0 919.8 -1.7 34
2017-11-19 13:00:00 11.7 3 Sur 8 Sur 0 920.5 -1 43
2017-11-19 12:00:00 8.5 5 Sudeste 12 Sur 0 921.3 -0.1 53
2017-11-19 11:00:00 4.9 6 Sur 11 Sur 0 921.5 0.7 67
2017-11-19 10:00:00 -1.1 0 Calma 4 Oeste 0 921.5 1.1 84
2017-11-19 09:00:00 -4.6 0 Calma 3 Noroeste 0 921.4 1 88
2017-11-19 08:00:00 -5.7 2 Nordeste 4 Sur 0 920.8 0.5 90
2017-11-19 07:00:00 -4.9 2 Sudoeste 8 Sur 0 920.4 0.1 90
2017-11-19 06:00:00 -5.1 2 Oeste 4 Sur 0 920.4 0.1 88
2017-11-19 05:00:00 -4.5 3 Sur 6 Sur 0 920.3 0.3 86
2017-11-19 04:00:00 -3.8 0 Calma 8 Sudeste 0 920.3 -0.1 86
2017-11-19 03:00:00 -3.2 2 Norte 5 Sudoeste 0 920.3 -0.3 87
2017-11-19 02:00:00 -2.4 0 Calma 3 Sur 0 920 -0.6 86
2017-11-19 01:00:00 -1.2 0 Calma 10 Sur 0 920.4 -0.1 85
2017-11-19 00:00:00 -0.3 2 Oeste 5 Sur 0 920.6 0.4 84
2017-11-18 23:00:00 1.4 0 Calma 4 Noroeste 0 920.6 0.8 81
2017-11-18 22:00:00 2.4 0 Calma 6 Sudeste 0 920.5 1.2 79
2017-11-18 21:00:00 4.3 2 Sudoeste 7 Nordeste 0 920.2 1.3 74
2017-11-18 20:00:00 5.9 5 Nordeste 8 Nordeste 0 919.8 1.3 70
2017-11-18 19:00:00 7.9 3 Noroeste 9 Norte 0 919.3 1.1 63
2017-11-18 18:00:00 10.6 4 Norte 17 Norte 0 918.9 0.7 53
2017-11-18 17:00:00 13.3 8 Nordeste 16 Norte 0 918.5 -0.3 44
2017-11-18 16:00:00 14.9 6 Norte 18 Norte 0 918.2 -0.9 37
2017-11-18 15:00:00 15.7 8 Noroeste 19 Noroeste 0 918.2 -1.6 34
2017-11-18 14:00:00 14.8 7 Norte 15 Norte 0 918.8 -1.2 37
2017-11-18 13:00:00 14 5 Noroeste 16 Oeste 0 919.1 -1.1 39
2017-11-18 12:00:00 10.9 3 Sudoeste 8 Oeste 0 919.8 -0.2 45
2017-11-18 11:00:00 6.5 3 Sudoeste 7 Sur 0 920 0.3 55
2017-11-18 10:00:00 2.1 2 Sudoeste 5 Oeste 0 920.2 0.6 68
2017-11-18 09:00:00 -1.7 3 Sudeste 4 Sur 0 920 0.5 80
2017-11-18 08:00:00 -3.5 2 Noroeste 4 Sur 0 919.7 0.5 83
2017-11-18 07:00:00 -3.1 3 Oeste 5 Sudoeste 0 919.6 0.4 85
2017-11-18 06:00:00 -2.8 0 Calma 4 Sudeste 0 919.5 0.3 79
2017-11-18 05:00:00 -2.2 0 Calma 9 Sur 0 919.2 -0.2 78
2017-11-18 04:00:00 -1.9 5 Sur 8 Sur 0 919.2 -0.3 78
2017-11-18 03:00:00 -1.6 4 Sur 10 Sur 0 919.2 -0.4 77
2017-11-18 02:00:00 -1 2 Sudoeste 4 Sudoeste 0 919.4 0 71
2017-11-18 01:00:00 -0.2 2 Este 6 Sudeste 0 919.5 0.1 71
2017-11-18 00:00:00 1.1 2 Oeste 8 Sudeste 0 919.6 0.5 67
2017-11-17 23:00:00 2.2 2 Sur 4 Oeste 0 919.4 0.5 60
2017-11-17 22:00:00 3.6 0 Calma 5 Sudeste 0 919.4 1.1 58
2017-11-17 21:00:00 5.3 0 Calma 4 Oeste 0 919.1 1.2 52
2017-11-17 20:00:00 7.1 0 Calma 10 Norte 0 918.9 1.4 46
2017-11-17 19:00:00 9.3 0 Calma 5 Noroeste 0 918.3 0.7 39
2017-11-17 18:00:00 13.3 0 Calma 7 Norte 0 917.9 -0.1 30
2017-11-17 17:00:00 17.2 5 Noroeste 10 Noroeste 0 917.5 -1.1 25
2017-11-17 16:00:00 17.8 3 Noroeste 9 Noroeste 0 917.6 -1.8 24
2017-11-17 15:00:00 17.3 4 Oeste 9 Oeste 0 918 -2.1 27
2017-11-17 14:00:00 16.3 4 Sur 8 Sur 0 918.6 -1.9 30
2017-11-17 13:00:00 14.4 3 Este 8 Sudoeste 0 919.4 -1.2 34
2017-11-17 12:00:00 11.3 4 Sudoeste 9 Sudoeste 0 920.1 -0.6 42
2017-11-17 11:00:00 7.1 5 Sudoeste 10 Sudoeste 0 920.5 0.2 52
2017-11-17 10:00:00 2 3 Sur 6 Sudeste 0 920.6 0.6 69
2017-11-17 09:00:00 -2.6 0 Calma 5 Sudeste 0 920.7 0.9 83
2017-11-17 08:00:00 -3.9 0 Calma 5 Sudeste 0 920.3 0.5 81
2017-11-17 07:00:00 -3.7 2 Noroeste 6 Sur 0 920 0.2 83
2017-11-17 06:00:00 -3.3 0 Calma 5 Sur 0 919.8 0 80
2017-11-17 05:00:00 -2.8 3 Sudoeste 6 Sur 0 919.8 0.1 77
2017-11-17 04:00:00 -2.4 0 Calma 5 Sur 0 919.8 -0.1 75
2017-11-17 03:00:00 -1.8 0 Calma 6 Sur 0 919.8 -0.1 73
2017-11-17 02:00:00 -1.3 0 Calma 5 Sur 0 919.7 -0.1 74
2017-11-17 01:00:00 -0.3 0 Calma 4 Sudoeste 0 919.9 0.2 72
2017-11-17 00:00:00 0.3 2 Este 6 Sur 0 919.9 0.6 65
2017-11-16 23:00:00 1 3 Sudeste 6 Sur 0 919.8 0.7 62
2017-11-16 22:00:00 1.7 3 Sur 6 Sudeste 0 919.7 0.8 60
2017-11-16 21:00:00 3.6 0 Calma 8 Sur 0 919.3 0.9 51
2017-11-16 20:00:00 6.1 4 Sur 8 Sur 0 919.1 1.2 45
2017-11-16 19:00:00 9.3 2 Norte 7 Nordeste 0 918.9 1.1 37
2017-11-16 18:00:00 12.6 3 Nordeste 14 Noroeste 0 918.4 0.6 32
2017-11-16 17:00:00 15.7 7 Noroeste 17 Noroeste 0 917.9 -0.3 26
2017-11-16 16:00:00 16.6 6 Noroeste 14 Noroeste 0 917.8 -1 26
2017-11-16 15:00:00 16.4 5 Noroeste 14 Oeste 0 917.8 -1.6 27
2017-11-16 14:00:00 15.6 5 Noroeste 10 Noroeste 0 918.2 -1.6 30
2017-11-16 13:00:00 13.7 4 Sur 7 Oeste 0 918.8 -0.8 34
2017-11-16 12:00:00 10.5 3 Sudoeste 9 Sudoeste 0 919.4 0.1 42
2017-11-16 11:00:00 6.5 3 Sudoeste 8 Sur 0 919.8 1 52
2017-11-16 10:00:00 1.7 2 Oeste 6 Sur 0 919.6 1.2 70
2017-11-16 09:00:00 -2.8 0 Calma 6 Sur 0 919.3 1.2 80
2017-11-16 08:00:00 -4.4 0 Calma 5 Sur 0 918.8 0.8 82
2017-11-16 07:00:00 -4.4 0 Calma 5 Sudeste 0 918.4 0.3 81
2017-11-16 06:00:00 -4 0 Calma 6 Sudoeste 0 918.1 -0.2 82
2017-11-16 05:00:00 -3.5 4 Sudeste 6 Sudeste 0 918 -0.2 77
2017-11-16 04:00:00 -3.2 2 Nordeste 5 Sudoeste 0 918.1 -0.1 76
2017-11-16 03:00:00 -2.6 0 Calma 5 Norte 0 918.3 0.1 74
2017-11-16 02:00:00 -1.9 3 Sudeste 5 Sur 0 918.2 0.1 70
2017-11-16 01:00:00 -1 4 Sudoeste 6 Sudeste 0 918.2 0.3 68
2017-11-16 00:00:00 -0.3 0 Calma 2 Oeste 0 918.2 0.7 63
2017-11-15 23:00:00 0.7 2 Sur 6 Sur 0 918.1 1 59
2017-11-15 22:00:00 2 3 Sur 5 Sur 0 917.9 1.1 54
2017-11-15 21:00:00 3.3 2 Sur 7 Sur 0 917.5 1.2 50
2017-11-15 20:00:00 5.6 2 Sur 5 Sur 0 917.1 1 44
2017-11-15 19:00:00 8.3 3 Sudeste 4 Sudeste 0 916.8 0.6 37
2017-11-15 18:00:00 12 0 Calma 8 Noroeste 0 916.3 0 31
2017-11-15 17:00:00 15 3 Noroeste 7 Noroeste 0 916.1 -0.8 26
2017-11-15 16:00:00 15.2 2 Oeste 7 Noroeste 0 916.2 -1.5 24
2017-11-15 15:00:00 15.2 4 Sudoeste 8 Sudoeste 0 916.3 -2.3 25
2017-11-15 14:00:00 13.9 3 Sudoeste 10 Sur 0 916.9 -2.3 26
2017-11-15 13:00:00 11.5 5 Sur 10 Sur 0 917.7 -1.7 29
2017-11-15 12:00:00 8.1 4 Sur 12 Sur 0 918.6 -0.8 41
2017-11-15 11:00:00 4.4 6 Sudoeste 10 Sudoeste 0 919.2 -0.1 48
2017-11-15 10:00:00 -0.5 2 Oeste 10 Sudeste 0 919.4 0.4 67
2017-11-15 09:00:00 -5.1 0 Calma 3 Sudeste 0 919.4 0.7 83
2017-11-15 08:00:00 -6.3 2 Sudoeste 5 Sur 0 919.3 0.7 86
2017-11-15 07:00:00 -6.5 0 Calma 3 Sur 0 919 0 83
2017-11-15 06:00:00 -6.1 2 Norte 6 Sudoeste 0 918.7 -0.5 83
2017-11-15 05:00:00 -5.5 0 Calma 6 Sur 0 918.6 -0.6 79
2017-11-15 04:00:00 -5.3 4 Sudeste 7 Sudeste 0 919 -0.2 78
2017-11-15 03:00:00 -4.2 4 Sudoeste 7 Sudoeste 0 919.2 -0.1 75
2017-11-15 02:00:00 -3.8 2 Sudeste 9 Sudeste 0 919.2 0 76
2017-11-15 01:00:00 -3.2 4 Sur 9 Sudeste 0 919.2 0.3 72
2017-11-15 00:00:00 -2.6 3 Nordeste 5 Nordeste 0 919.3 0.7 71
2017-11-14 23:00:00 -1.1 2 Oeste 11 Sudeste 0 919.2 1.3 65
2017-11-14 22:00:00 0.6 0 Calma 11 Sudeste 0 918.9 1.2 60
2017-11-14 21:00:00 1.8 4 Sur 9 Sudeste 0 918.6 1.2 55
2017-11-14 20:00:00 3.8 4 Norte 12 Norte 0 917.9 1 50
2017-11-14 19:00:00 5.4 10 Norte 21 Nordeste 0 917.7 1 45
2017-11-14 18:00:00 6.8 6 Nordeste 24 Norte 0 917.4 0.6 39
2017-11-14 17:00:00 8.9 9 Nordeste 23 Nordeste 0 916.9 -0.1 35
2017-11-14 16:00:00 10.8 9 Norte 24 Norte 0 916.7 -0.8 31
2017-11-14 15:00:00 11.1 9 Norte 19 Nordeste 0 916.8 -1.4 30
2017-11-14 14:00:00 10.4 6 Norte 19 Nordeste 0 917 -1.2 29
2017-11-14 13:00:00 10.1 8 Norte 15 Noroeste 0 917.5 -1 28
2017-11-14 12:00:00 8.7 8 Norte 16 Norte 0 918.2 -0.2 30
2017-11-14 11:00:00 6.1 7 Noroeste 15 Oeste 0 918.2 0.2 40
2017-11-14 10:00:00 2.2 2 Sudoeste 9 Sur 0 918.5 0.7 62
2017-11-14 09:00:00 -2 3 Sudeste 6 Sudeste 0 918.4 0.8 82
2017-11-14 08:00:00 -3.2 3 Sur 13 Sudeste 0 918 0.5 82
2017-11-14 07:00:00 -2.5 10 Sudeste 14 Sudeste 0 917.8 0 80
2017-11-14 06:00:00 -2.1 4 Sur 10 Sur 0 917.6 -0.4 77
2017-11-14 05:00:00 -0.9 3 Noroeste 10 Sudoeste 0 917.5 -0.8 72
2017-11-14 04:00:00 -1.4 3 Oeste 9 Noroeste 0 917.8 -0.9 74
2017-11-14 03:00:00 -1 3 Nordeste 8 Este 0 918 -0.9 75
2017-11-14 02:00:00 -2.1 3 Sudeste 7 Sur 0 918.3 -0.6 76
2017-11-14 01:00:00 -1.9 0 Calma 6 Norte 0 918.7 0 74
2017-11-14 00:00:00 -1.1 3 Sur 6 Noroeste 0 918.9 0.5 72
2017-11-13 23:00:00 -0.3 3 Este 8 Noroeste 0 918.9 0.7 68
2017-11-13 22:00:00 1.2 3 Sudoeste 8 Norte 0 918.7 0.5 63
2017-11-13 21:00:00 1.6 4 Nordeste 15 Noroeste 0 918.4 1.2 59
2017-11-13 20:00:00 2.8 6 Noroeste 23 Norte 0 918.2 1.3 53
2017-11-13 19:00:00 3.8 5 Noroeste 28 Norte 0 918.2 1.6 48
2017-11-13 18:00:00 5.1 12 Norte 39 Norte 0 917.2 1 45
2017-11-13 17:00:00 6.7 15 Norte 46 Norte 0 916.9 0.2 36
2017-11-13 16:00:00 7.8 17 Noroeste 49 Noroeste 0 916.6 0.1 34
2017-11-13 15:00:00 8.5 16 Norte 56 Norte 0 916.2 -0.6 31
2017-11-13 14:00:00 8.5 19 Noroeste 57 Norte 0 916.7 -0.4 31
2017-11-13 13:00:00 7.3 22 Norte 54 Norte 0 916.5 -1 46
2017-11-13 12:00:00 7.2 20 Noroeste 58 Norte 0 916.8 0.4 53
2017-11-13 11:00:00 6.4 16 Norte 45 Norte 0 917.1 1.3 61
2017-11-13 10:00:00 4.8 15 Norte 47 Norte 0 917.5 2.1 82
2017-11-13 09:00:00 6.6 14 Norte 37 Noroeste 0 916.4 1.3 64
2017-11-13 08:00:00 6.7 14 Noroeste 32 Noroeste 0 915.8 0.7 63
2017-11-13 07:00:00 6.6 14 Noroeste 40 Noroeste 0 915.4 0.1 62
2017-11-13 06:00:00 7 12 Noroeste 39 Noroeste 0 915.1 -0.6 63
2017-11-13 05:00:00 7.3 13 Noroeste 31 Noroeste 0 915.1 -0.9 72
2017-11-13 04:00:00 8 8 Norte 16 Norte 0 915.3 -1.3 75
2017-11-13 03:00:00 7.7 5 Noroeste 22 Noroeste 0 915.7 -1.1 76
2017-11-13 02:00:00 6.8 5 Norte 10 Norte 0 916 -0.8 79
2017-11-13 01:00:00 7.2 2 Noroeste 9 Sudoeste 0 916.6 -0.4 74
2017-11-13 00:00:00 8.1 4 Nordeste 10 Norte 0 916.8 -0.5 73
2017-11-12 23:00:00 8.6 4 Sudeste 10 Noroeste 0 916.8 -0.7 69
2017-11-12 22:00:00 8.7 5 Sudoeste 9 Sudeste 0 917 -0.5 70
2017-11-12 21:00:00 8.4 5 Sudeste 13 Sur 0 917.3 -0.1 73
2017-11-12 20:00:00 7.9 5 Este 8 Sudeste 0 917.5 0.3 73
2017-11-12 19:00:00 9.4 3 Noroeste 9 Norte 0 917.5 0.2 66
2017-11-12 18:00:00 12 8 Norte 18 Norte 0 917.4 -0.2 55
2017-11-12 17:00:00 14.4 8 Norte 28 Norte 0 917.2 -1.3 46
2017-11-12 16:00:00 15 12 Norte 28 Norte 0 917.3 -2.2 42
2017-11-12 15:00:00 14.5 4 Norte 13 Sudoeste 0 917.6 -3.2 47
2017-11-12 14:00:00 12.9 4 Este 10 Noroeste 0 918.5 -2.8 55
2017-11-12 13:00:00 11.5 5 Noroeste 15 Este 0 919.5 -2 59
2017-11-12 12:00:00 9.6 4 Sudeste 8 Sur 0 920.8 -0.9 70
2017-11-12 11:00:00 6.9 2 Sudeste 7 Sudeste 0 921.3 -0.2 82
2017-11-12 10:00:00 2.3 3 Sudeste 5 Sudeste 0 921.5 -0.1 93
2017-11-12 09:00:00 -1.3 0 Calma 6 Este 0 921.7 0.1 96
2017-11-12 08:00:00 -2.3 3 Sudeste 5 Este 0 921.5 0 97
2017-11-12 07:00:00 -1.9 2 Nordeste 5 Este 0 921.6 -0.2 95
2017-11-12 06:00:00 -1.2 0 Calma 5 Oeste 0 921.6 -0.5 93
2017-11-12 05:00:00 -0.3 2 Sur 5 Norte 0 921.5 -0.9 93
2017-11-12 04:00:00 0.4 3 Norte 8 Sudeste 0 921.8 -1.2 93
2017-11-12 03:00:00 2 4 Sur 11 Sur 0 922.1 -1.3 93
2017-11-12 02:00:00 1.9 8 Sudeste 10 Sudeste 0 922.4 -1.1 93
2017-11-12 01:00:00 2.4 3 Sudeste 9 Sudeste 0 923 -0.6 90
2017-11-12 00:00:00 3.4 3 Sur 9 Sur 0 923.4 -0.3 87
2017-11-11 23:00:00 4 4 Sudeste 7 Sur 0 923.5 -0.3 85
2017-11-11 22:00:00 5 3 Nordeste 7 Norte 0 923.6 0.2 83
2017-11-11 21:00:00 6.4 5 Noroeste 11 Norte 0 923.7 0.7 80
2017-11-11 20:00:00 8.1 3 Este 16 Norte 0 923.8 0.8 74
2017-11-11 19:00:00 9.3 10 Norte 18 Norte 0 923.4 0.3 71
2017-11-11 18:00:00 11.3 6 Norte 30 Norte 0 923 -0.1 64
2017-11-11 17:00:00 13.1 10 Norte 27 Norte 0 923 -0.5 57
2017-11-11 16:00:00 15.1 10 Norte 25 Norte 0 923.1 -1 51
2017-11-11 15:00:00 15.7 13 Noroeste 28 Norte 0 923.1 -2 49
2017-11-11 14:00:00 15.3 9 Noroeste 25 Noroeste 0 923.5 -2 51
2017-11-11 13:00:00 13.9 10 Noroeste 26 Noroeste 0 924.1 -1.4 56
2017-11-11 12:00:00 12.9 9 Norte 23 Noroeste 0 925.1 -0.2 59
2017-11-11 11:00:00 10 5 Oeste 13 Oeste 0 925.5 0.4 70
2017-11-11 10:00:00 8.8 4 Noroeste 10 Norte 0 925.5 0.4 73
2017-11-11 09:00:00 7.9 3 Noroeste 12 Noroeste 0 925.3 0.4 75
2017-11-11 08:00:00 7.6 5 Norte 12 Norte 0 925.1 0.1 75
2017-11-11 07:00:00 7.5 3 Norte 10 Norte 0 925.1 0.2 75
2017-11-11 06:00:00 7.5 4 Sudoeste 10 Noroeste 0 924.9 -0.1 75
2017-11-11 05:00:00 7.3 3 Sudeste 19 Norte 0 925 0 76
2017-11-11 04:00:00 7.7 6 Noroeste 23 Norte 0 924.9 -0.5 74
2017-11-11 03:00:00 7.6 10 Noroeste 30 Norte 0 925 -0.3 77
2017-11-11 02:00:00 8.5 10 Norte 24 Noroeste 0 925 -0.5 74
2017-11-11 01:00:00 8.9 10 Norte 30 Nordeste 0 925.4 -0.1 74
2017-11-11 00:00:00 8.9 13 Norte 37 Norte 0 925.3 -0.1 73
2017-11-10 23:00:00 9.4 15 Norte 40 Norte 0 925.5 0.1 76
2017-11-10 22:00:00 9.5 17 Norte 44 Norte 0 925.5 0.6 75
2017-11-10 21:00:00 9.8 15 Norte 36 Norte 0 925.4 0.8 75
2017-11-10 20:00:00 10.4 10 Norte 36 Norte 0 925.4 1.3 73
2017-11-10 19:00:00 10.6 10 Norte 31 Norte 0 924.9 0.8 71
2017-11-10 18:00:00 11.2 12 Norte 45 Norte 0 924.6 0.8 65
2017-11-10 17:00:00 11.7 12 Norte 35 Nordeste 0 924.1 -0.1 61
2017-11-10 16:00:00 12.4 14 Norte 40 Norte 0 924.1 -0.6 56
2017-11-10 15:00:00 12.1 15 Norte 44 Norte 0 923.8 -1.8 57
2017-11-10 14:00:00 12.2 15 Norte 37 Norte 0 924.2 -1.3 55
2017-11-10 13:00:00 8.8 5 Nordeste 16 Norte 0 924.7 -0.6 71
2017-11-10 12:00:00 6.7 0 Calma 8 Este 0 925.6 0.8 78
2017-11-10 11:00:00 6.3 4 Sudeste 11 Sur 0 925.5 1 67
2017-11-10 10:00:00 3.2 5 Sudeste 8 Sur 0 925.3 1.5 77
2017-11-10 09:00:00 1.2 4 Sur 9 Sur 0 924.8 0.7 82
2017-11-10 08:00:00 -1.1 3 Sur 11 Sur 0 924.5 0.3 87
2017-11-10 07:00:00 -0.7 8 Sudeste 14 Sudeste 0 923.8 -0.3 86
2017-11-10 06:00:00 -0.7 6 Sur 13 Sur 0 924.1 0.1 86
2017-11-10 05:00:00 -0.3 6 Sur 11 Sur 0 924.2 0.2 85
2017-11-10 04:00:00 0.9 4 Este 13 Norte 0 924.1 0 82
2017-11-10 03:00:00 1.9 0 Calma 8 Noroeste 0 924 -0.1 77
2017-11-10 02:00:00 3.5 6 Sudoeste 23 Noroeste 0 924 0.3 74
2017-11-10 01:00:00 4.4 8 Norte 27 Norte 0 924.1 0.3 72
2017-11-10 00:00:00 4.3 8 Norte 36 Norte 0 924.1 0.4 72
2017-11-09 23:00:00 4.4 9 Norte 27 Norte 0 923.7 0.3 72
2017-11-09 22:00:00 5.4 9 Norte 28 Norte 0 923.8 0.9 71
2017-11-09 21:00:00 5.8 11 Norte 28 Norte 0 923.7 1.7 72
2017-11-09 20:00:00 6.1 8 Norte 30 Norte 0 923.4 1.8 69
2017-11-09 19:00:00 6.2 9 Norte 23 Norte 0 922.9 1.3 67
2017-11-09 18:00:00 6.6 8 Norte 32 Noroeste 0 922 0.8 63
2017-11-09 17:00:00 8.7 12 Norte 37 Norte 0 921.6 0.1 54
2017-11-09 16:00:00 9.6 14 Norte 37 Norte 0 921.6 -0.4 50
2017-11-09 15:00:00 10.1 15 Norte 38 Norte 0 921.2 -0.9 48
2017-11-09 14:00:00 9.2 12 Norte 46 Noroeste 0 921.5 -1.2 54
2017-11-09 13:00:00 9.1 17 Norte 39 Norte 0 922 -0.7 54
2017-11-09 12:00:00 -- 12 Norte 35 Norte 0 922.1 -0.5 --
2017-11-09 11:00:00 6.7 10 Norte 24 Norte 0 922.7 0.7 67
2017-11-09 10:00:00 3.5 10 Norte 20 Norte 0 922.7 0.9 81
2017-11-09 09:00:00 1.9 6 Noroeste 15 Noroeste 0 922.6 0.6 87
2017-11-09 08:00:00 0.7 6 Sudeste 9 Sur 0 922 0.4 92
2017-11-09 07:00:00 0.5 3 Oeste 10 Sudeste 0 921.8 0.2 90
2017-11-09 06:00:00 -0.5 4 Sur 7 Sur 0 922 0.3 94
2017-11-09 05:00:00 -0.8 5 Sudeste 6 Sudeste 0 921.6 0 91
2017-11-09 04:00:00 -0.2 5 Sur 13 Sur 0 921.6 -0.3 91
2017-11-09 03:00:00 -0.5 4 Sudeste 11 Sudeste 0 921.7 -0.4 91
2017-11-09 02:00:00 -0.5 3 Sudeste 6 Sudeste 0 921.6 -0.3 90
2017-11-09 01:00:00 1.2 4 Noroeste 9 Noroeste 0 921.9 0.3 88
2017-11-09 00:00:00 2.8 2 Oeste 8 Norte 0 922.1 0.7 87
2017-11-08 23:00:00 2.9 3 Nordeste 6 Este 0 921.9 0.8 88
2017-11-08 22:00:00 2.5 3 Oeste 13 Norte 0 921.6 0.8 88
2017-11-08 21:00:00 3.3 5 Norte 11 Norte 0 921.4 1.4 85
2017-11-08 20:00:00 4 2 Noroeste 11 Norte 0 921.1 1.6 87
2017-11-08 19:00:00 4.5 10 Norte 24 Norte 0 920.8 1.6 84
2017-11-08 18:00:00 5.9 12 Norte 28 Nordeste 0 920 0.8 73
2017-11-08 17:00:00 8.6 10 Norte 26 Norte 0 919.5 0.4 57
2017-11-08 16:00:00 8.7 11 Norte 24 Norte 0 919.2 -0.8 56
2017-11-08 15:00:00 9.4 11 Norte 26 Nordeste 0 919.2 -1.5 51
2017-11-08 14:00:00 11.9 8 Norte 23 Norte 0 919.1 -1.7 42
2017-11-08 13:00:00 10.3 9 Norte 26 Norte 0 920 -0.7 45
2017-11-08 12:00:00 9.7 8 Norte 25 Noroeste 0 920.7 0.5 53
2017-11-08 11:00:00 8.5 10 Norte 27 Norte 0 920.8 0.8 59
2017-11-08 10:00:00 7.8 7 Norte 17 Nordeste 0 920.7 1 67
2017-11-08 09:00:00 4.4 2 Nordeste 5 Norte 0 920.2 0.6 87
2017-11-08 08:00:00 3.8 0 Calma 4 Sudeste 0 920 0.5 89
2017-11-08 07:00:00 3.9 3 Sudoeste 5 Sudoeste 0 919.7 0.4 90
2017-11-08 06:00:00 4.2 2 Nordeste 5 Este 0 919.6 0.3 88
2017-11-08 05:00:00 3.4 0 Calma 5 Norte 0 919.5 0.3 90
2017-11-08 04:00:00 2.9 3 Oeste 7 Este 0 919.3 0.3 91
2017-11-08 03:00:00 2 2 Norte 5 Norte 0 919.3 0.5 91
2017-11-08 02:00:00 0.9 2 Nordeste 5 Oeste 0 919.2 0.7 93
2017-11-08 01:00:00 0.5 4 Nordeste 6 Nordeste 0 919 0.8 91
2017-11-08 00:00:00 1.3 3 Sudeste 5 Sudeste 0 918.8 0.9 87
2017-11-07 23:00:00 2.3 4 Este 8 Noroeste 0 918.5 1 83
2017-11-07 22:00:00 3.7 3 Nordeste 10 Sudeste 0 918.2 1.4 77
2017-11-07 21:00:00 5.2 0 Calma 6 Nordeste 0 917.9 1.6 70
2017-11-07 20:00:00 7.6 4 Norte 12 Norte 0 917.5 1.5 62
2017-11-07 19:00:00 9.2 7 Norte 13 Norte 0 916.8 0.5 60
2017-11-07 18:00:00 11.2 4 Noroeste 17 Norte 0 916.3 0.2 52
2017-11-07 17:00:00 14.3 6 Noroeste 24 Noroeste 0 916 -0.1 37
2017-11-07 16:00:00 14.5 6 Norte 25 Norte 0 916.3 -0.1 29
2017-11-07 15:00:00 13.7 9 Norte 26 Noroeste 0 916.1 -1.3 28
2017-11-07 14:00:00 13 8 Noroeste 23 Norte 0 916.1 -1.7 34
2017-11-07 13:00:00 11.6 10 Norte 23 Norte 0 916.4 -1.2 35
2017-11-07 12:00:00 10.2 8 Norte 22 Norte 0 917.4 -0.2 43
2017-11-07 11:00:00 7.7 5 Norte 14 Norte 0 917.8 0.7 57
2017-11-07 10:00:00 6 5 Sur 12 Sur 0 917.6 0.8 68
2017-11-07 09:00:00 2.1 3 Sur 10 Sur 0 917.6 0.7 87
2017-11-07 08:00:00 0.2 5 Sur 8 Sur 0 917.1 0.6 91
2017-11-07 07:00:00 0.1 0 Calma 10 Sudeste 0 916.8 0.2 90
2017-11-07 06:00:00 -0.1 8 Sudeste 14 Noroeste 0 916.9 0.1 90
2017-11-07 05:00:00 0.3 10 Sudeste 14 Sudeste 0 916.5 -0.3 91
2017-11-07 04:00:00 1.5 6 Sur 16 Sur 0 916.6 -1 89
2017-11-07 03:00:00 2.3 9 Sudoeste 15 Sudoeste 0 916.8 -1.2 88
2017-11-07 02:00:00 2.4 4 Noroeste 33 Oeste 0 916.8 -1.7 88
2017-11-07 01:00:00 2.9 8 Norte 20 Noroeste 0 917.6 -1 88
2017-11-07 00:00:00 3.4 7 Noroeste 23 Norte 0 918 -0.6 86
2017-11-06 23:00:00 4.2 10 Noroeste 36 Norte 0 918.5 0.1 79
2017-11-06 22:00:00 4.6 9 Norte 41 Norte 0 918.6 0.2 80
2017-11-06 21:00:00 4.7 18 Norte 44 Norte 0 918.6 0.3 73
2017-11-06 20:00:00 5.6 12 Norte 39 Noroeste 0 918.4 0.1 75
2017-11-06 19:00:00 5.7 8 Noroeste 26 Noroeste 0 918.4 0 76
2017-11-06 18:00:00 6.4 14 Norte 32 Norte 0 918.3 -0.2 75
2017-11-06 17:00:00 7.9 7 Noroeste 26 Noroeste 0 918.3 -0.9 69
2017-11-06 16:00:00 10 14 Noroeste 32 Noroeste 0 918.4 -1.5 57
2017-11-06 15:00:00 10.2 14 Norte 30 Norte 0 918.5 -2.3 54
2017-11-06 14:00:00 8.8 13 Noroeste 31 Noroeste 0 919.2 -2.1 60
2017-11-06 13:00:00 8.3 13 Norte 28 Norte 0 919.9 -1.2 64
2017-11-06 12:00:00 8.6 13 Norte 28 Norte 0 920.8 -0.4 64
2017-11-06 11:00:00 7.8 10 Norte 33 Oeste 0 921.3 0.4 70
2017-11-06 10:00:00 6.2 6 Norte 16 Norte 0 921.1 0.5 81
2017-11-06 09:00:00 4.6 5 Noroeste 11 Noroeste 0 921.2 0.5 92
2017-11-06 08:00:00 4.3 3 Norte 10 Norte 0 920.9 0.5 95
2017-11-06 07:00:00 4.4 6 Norte 17 Noroeste 0.4 920.6 0.3 94
2017-11-06 06:00:00 4.6 4 Norte 15 Norte 0.2 920.7 -0.1 95
2017-11-06 05:00:00 4.6 6 Norte 19 Norte 1 920.4 -0.5 94
2017-11-06 04:00:00 4.7 3 Nordeste 11 Noroeste 0 920.3 -0.6 94
2017-11-06 03:00:00 5.2 5 Noroeste 15 Noroeste 0.6 920.8 -0.2 93
2017-11-06 02:00:00 5.7 6 Norte 17 Norte 0 920.9 -0.2 87
2017-11-06 01:00:00 6.3 8 Noroeste 21 Noroeste 0 920.9 0.1 75
2017-11-06 00:00:00 5.6 5 Noroeste 12 Noroeste 0 921 0.6 77
2017-11-05 23:00:00 5.1 4 Norte 12 Oeste 0 921.1 1 77
2017-11-05 22:00:00 5.7 5 Noroeste 16 Norte 0 920.8 1 74
2017-11-05 21:00:00 7 8 Noroeste 22 Noroeste 0 920.4 1.3 67
2017-11-05 20:00:00 7.8 5 Noroeste 22 Norte 0 920.1 1.2 64
2017-11-05 19:00:00 9.3 7 Norte 36 Noroeste 0 919.8 1 56
2017-11-05 18:00:00 10.3 8 Noroeste 34 Noroeste 0 919.1 0.7 53
2017-11-05 17:00:00 11.6 14 Noroeste 39 Noroeste 0 918.9 0.4 47
2017-11-05 16:00:00 12.5 15 Noroeste 36 Noroeste 0 918.8 0.1 47
2017-11-05 15:00:00 13.5 14 Noroeste 38 Noroeste 0 918.4 -0.8 44
2017-11-05 14:00:00 12.9 15 Noroeste 37 Noroeste 0 918.5 -0.7 46
2017-11-05 13:00:00 13 12 Norte 27 Norte 0 918.7 -0.6 48
2017-11-05 12:00:00 11.6 9 Norte 31 Norte 0 919.2 0.4 54
2017-11-05 11:00:00 11 11 Noroeste 24 Noroeste 0 919.2 1.2 62
2017-11-05 10:00:00 8.7 7 Noroeste 17 Norte 0 919.3 2.2 75
2017-11-05 09:00:00 8.6 6 Noroeste 19 Noroeste 0 918.8 2.4 77
2017-11-05 08:00:00 8.3 5 Norte 22 Norte 0 918 2 83
2017-11-05 07:00:00 8.5 6 Norte 19 Norte 0 917.1 1.4 83
2017-11-05 06:00:00 8.9 8 Norte 15 Nordeste 0 916.4 1.2 85
2017-11-05 05:00:00 9 4 Noroeste 11 Noroeste 0 916 1.2 91
2017-11-05 04:00:00 9.2 5 Norte 12 Norte 0 915.7 1.3 92
2017-11-05 03:00:00 9.3 5 Norte 16 Norte 0 915.2 1.2 93
2017-11-05 02:00:00 9.5 4 Norte 12 Norte 0 914.8 1.3 97
2017-11-05 01:00:00 9.5 2 Norte 8 Norte 1.4 914.4 1.2 96
2017-11-05 00:00:00 9.7 4 Norte 8 Norte 0 914 1.4 92
2017-11-04 23:00:00 9.8 2 Norte 10 Oeste 0.2 913.5 1.2 93
2017-11-04 22:00:00 10.1 4 Oeste 8 Oeste 0 913.2 1.4 89
2017-11-04 21:00:00 10.1 4 Este 8 Sudeste 0 912.6 1.5 88
2017-11-04 20:00:00 9.9 7 Sudeste 11 Sudoeste 0 912.3 1.3 88
2017-11-04 19:00:00 10.2 4 Sur 9 Sudoeste 0 911.8 1 86
2017-11-04 18:00:00 11.1 4 Sur 17 Oeste 0 911.1 0.5 81
2017-11-04 17:00:00 10.6 4 Oeste 13 Sur 0 911 -0.1 88
2017-11-04 16:00:00 10.6 8 Sur 32 Oeste 0.2 910.8 -0.4 89
2017-11-04 15:00:00 12.6 4 Sudoeste 13 Sudoeste 0.8 910.6 -1.2 87
2017-11-04 14:00:00 12.1 9 Sudoeste 30 Sudoeste 1.2 911.1 -1 84
2017-11-04 13:00:00 15 12 Sudoeste 21 Sudoeste 0 911.2 -0.8 59
2017-11-04 12:00:00 14.2 9 Sudoeste 18 Oeste 0 911.8 0.2 63
2017-11-04 11:00:00 13.9 3 Sur 10 Sudeste 0 912.1 1 67
2017-11-04 10:00:00 13.3 5 Este 9 Nordeste 0 912 1.1 76
2017-11-04 09:00:00 10.6 2 Sudoeste 8 Sudeste 0 911.6 0.6 87
2017-11-04 08:00:00 8.2 0 Calma 6 Sur 0 911.1 0.1 95
2017-11-04 07:00:00 8.1 3 Sur 6 Oeste 0 910.9 -0.5 93
2017-11-04 06:00:00 9.1 4 Sudeste 9 Este 0 911 -0.8 94
2017-11-04 05:00:00 9.4 3 Este 5 Noroeste 0.2 911 -1 90
2017-11-04 04:00:00 9.8 4 Sudeste 11 Sudeste 0 911.4 -1.1 88
2017-11-04 03:00:00 9.8 4 Sudeste 8 Sudeste 0 911.8 -0.9 78
2017-11-04 02:00:00 9.3 3 Sur 10 Sudeste 0 912 -1 79
2017-11-04 01:00:00 9.6 5 Sudeste 7 Sudeste 0 912.5 -0.5 74
2017-11-04 00:00:00 10.5 3 Sur 6 Sur 0 912.7 -0.2 70
2017-11-03 23:00:00 11.9 5 Sur 11 Sudeste 0 913 0.1 66
2017-11-03 22:00:00 13.1 4 Nordeste 6 Este 0 913 0.4 62
2017-11-03 21:00:00 14.5 5 Este 17 Este 0 912.9 1 59
2017-11-03 20:00:00 15.4 8 Este 14 Este 0 912.9 0.9 55
2017-11-03 19:00:00 16.4 5 Nordeste 11 Nordeste 0 912.6 0.5 48
2017-11-03 18:00:00 17.6 3 Oeste 23 Oeste 0 911.9 -0.1 46
2017-11-03 17:00:00 19.4 8 Oeste 21 Norte 0 912 -0.5 41
2017-11-03 16:00:00 19.9 7 Oeste 24 Oeste 0 912.1 -1.2 40
2017-11-03 15:00:00 20.7 8 Oeste 26 Sudoeste 0 912 -1.9 38
2017-11-03 14:00:00 20 8 Oeste 25 Oeste 0 912.5 -1.8 41
2017-11-03 13:00:00 18.6 11 Sudoeste 22 Sudoeste 0 913.3 -1.1 47
2017-11-03 12:00:00 18.9 7 Sur 16 Oeste 0 913.9 -0.3 47
2017-11-03 11:00:00 16.6 8 Sudoeste 18 Sudoeste 0 914.3 0.5 59
2017-11-03 10:00:00 13.9 5 Este 7 Sudeste 0 914.4 1 73
2017-11-03 09:00:00 11.2 2 Este 8 Sur 0 914.2 0.3 85
2017-11-03 08:00:00 10.1 3 Norte 8 Oeste 0 913.8 -0.2 87
2017-11-03 07:00:00 9.9 4 Sudeste 17 Este 0 913.4 -1.1 86
2017-11-03 06:00:00 9.2 6 Sudeste 8 Sudeste 0 913.9 -0.8 86
2017-11-03 05:00:00 9.3 7 Sudeste 10 Sudeste 0 914 -1.5 88
2017-11-03 04:00:00 10.1 4 Sur 10 Sudoeste 0 914.5 -1.5 85
2017-11-03 03:00:00 10.3 3 Sudeste 12 Sudoeste 0 914.7 -1.8 81
2017-11-03 02:00:00 10.9 7 Sudoeste 12 Sudoeste 0 915.5 -1.3 84
2017-11-03 01:00:00 9 3 Sur 7 Sudeste 0 916 -0.9 80
2017-11-03 00:00:00 8.8 3 Sudeste 5 Sudeste 0 916.5 -0.3 77
2017-11-02 23:00:00 9.1 0 Calma 5 Nordeste 0 916.8 0.3 76
2017-11-02 22:00:00 10.1 2 Oeste 11 Sur 0 916.9 0.7 71
2017-11-02 21:00:00 11.2 3 Este 10 Sur 0 916.8 1.1 67
2017-11-02 20:00:00 12.6 0 Calma 9 Nordeste 0 916.5 0.7 59
2017-11-02 19:00:00 15.2 5 Norte 18 Nordeste 0 916.2 0.3 50
2017-11-02 18:00:00 16.9 2 Oeste 5 Noroeste 0 915.7 -0.5 52
2017-11-02 17:00:00 20.5 3 Oeste 9 Norte 0 915.8 -1.1 42
2017-11-02 16:00:00 19.9 4 Noroeste 10 Noroeste 0 915.9 -1.7 45
2017-11-02 15:00:00 19.3 3 Norte 12 Oeste 0 916.2 -2.1 46
2017-11-02 14:00:00 20.2 5 Oeste 16 Sudoeste 0 916.9 -2.1 44
2017-11-02 13:00:00 19 8 Sudoeste 23 Sudoeste 0 917.6 -1.6 50
2017-11-02 12:00:00 17.7 14 Sudoeste 25 Sudoeste 0 918.3 -0.9 54
2017-11-02 11:00:00 14.8 3 Sur 7 Sudoeste 0 919 0.2 69
2017-11-02 10:00:00 9.8 2 Oeste 4 Oeste 0 919.2 0.7 91
2017-11-02 09:00:00 6.4 2 Sudoeste 4 Este 0 919.2 0.7 96
2017-11-02 08:00:00 6.2 4 Sudeste 9 Sudeste 0 918.8 0.1 97
2017-11-02 07:00:00 5.7 3 Sudeste 8 Este 0 918.5 -0.4 96
2017-11-02 06:00:00 5.7 5 Sur 8 Sudeste 0 918.5 -0.7 97
2017-11-02 05:00:00 5.9 2 Sudoeste 9 Sur 0 918.7 -0.8 92
2017-11-02 04:00:00 5.9 4 Sur 7 Sudeste 0 918.9 -0.8 92
2017-11-02 03:00:00 7 3 Sudeste 6 Sudeste 0 919.2 -0.8 92
2017-11-02 02:00:00 7.8 4 Sudeste 7 Sur 0 919.5 -0.7 90
2017-11-02 01:00:00 9.9 3 Sudeste 12 Sudeste 0 919.7 -0.3 84
2017-11-02 00:00:00 11.1 6 Sudeste 19 Sudeste 0 920 0.5 82
2017-11-01 23:00:00 9.7 6 Sur 12 Sudeste 0 920.2 1.1 84
2017-11-01 22:00:00 10.8 8 Sudeste 13 Sur 0 920 1.2 72
2017-11-01 21:00:00 11.6 6 Sur 10 Sur 0 919.5 1 67
2017-11-01 20:00:00 12.6 2 Sur 9 Sudeste 0 919.1 0.8 63
2017-11-01 19:00:00 14.7 5 Sudoeste 12 Sudeste 0 918.8 0.4 56
2017-11-01 18:00:00 17.3 7 Sur 13 Sur 0 918.5 -0.3 46
2017-11-01 17:00:00 19.5 2 Oeste 14 Sudoeste 0 918.3 -1.1 43
2017-11-01 16:00:00 21.4 7 Sudoeste 17 Sur 0 918.4 -1.8 36
2017-11-01 15:00:00 21.1 5 Sur 16 Sudoeste 0 918.8 -2.3 38
2017-11-01 14:00:00 20 8 Sur 14 Sudeste 0 919.4 -2.1 43
2017-11-01 13:00:00 19.7 7 Sudoeste 17 Sudeste 0 920.2 -1.5 42
2017-11-01 12:00:00 17.9 5 Sur 11 Sudeste 0 921.1 -0.5 53
2017-11-01 11:00:00 14.9 4 Sudoeste 7 Sudoeste 0 921.5 0.4 66
2017-11-01 10:00:00 10.8 4 Sudoeste 8 Sur 0 921.7 1.1 83
2017-11-01 09:00:00 5.5 0 Calma 4 Oeste 0 921.6 1.4 92
2017-11-01 08:00:00 3.6 0 Calma 5 Sudeste 0 921.1 0.7 95
2017-11-01 07:00:00 4.1 2 Sudeste 7 Sudeste 0 920.6 0 95
2017-11-01 06:00:00 4.7 5 Sudeste 8 Sudeste 0 920.2 -0.6 97
2017-11-01 05:00:00 4.2 5 Sudeste 8 Sudeste 0 920.4 -0.4 96
2017-11-01 04:00:00 4.1 3 Sudoeste 5 Sudoeste 0 920.6 -0.2 95
2017-11-01 03:00:00 4.5 0 Calma 5 Noroeste 0 920.8 0.2 93
2017-11-01 02:00:00 5.8 0 Calma 6 Sudeste 0 920.8 0.1 90
2017-11-01 01:00:00 6.7 3 Sur 8 Sudeste 0 920.8 0.2 88
2017-11-01 00:00:00 6.8 6 Sudeste 9 Sudeste 0 920.6 0.4 88
2017-10-31 23:00:00 7.2 2 Sudeste 5 Sudeste 0 920.7 1 78
2017-10-31 22:00:00 7.9 2 Sudeste 4 Nordeste 0 920.6 1.2 72
2017-10-31 21:00:00 9.5 4 Nordeste 10 Sudeste 0 920.2 1.5 65
2017-10-31 20:00:00 12.3 7 Sudeste 14 Este 0 919.7 1.3 58
2017-10-31 19:00:00 13.6 5 Norte 15 Norte 0 919.4 1 55
2017-10-31 18:00:00 16.8 6 Sur 18 Sur 0 918.7 -0.1 46
2017-10-31 17:00:00 19.7 9 Sur 17 Sur 0 918.4 -0.6 39
2017-10-31 16:00:00 20.4 7 Sur 22 Sudeste 0 918.4 -1.1 38
2017-10-31 15:00:00 20.4 6 Sur 19 Sur 0 918.8 -1.5 38
2017-10-31 14:00:00 20.2 12 Sudoeste 24 Sudeste 0 919 -1.8 40
2017-10-31 13:00:00 18.5 5 Sur 10 Sudoeste 0 919.5 -1.5 49
2017-10-31 12:00:00 14.5 4 Oeste 11 Oeste 0 920.3 -0.3 57
2017-10-31 11:00:00 10.9 5 Sudoeste 9 Sudoeste 0 920.8 0.6 66
2017-10-31 10:00:00 7.2 4 Sudoeste 8 Sudeste 0 921 1.3 76
2017-10-31 09:00:00 4 5 Sur 9 Sur 0 920.6 1.2 86
2017-10-31 08:00:00 1.2 0 Calma 7 Sudeste 0 920.2 0.9 94
2017-10-31 07:00:00 1.7 4 Sur 5 Sur 0 919.7 0.4 93
2017-10-31 06:00:00 2.3 3 Norte 8 Norte 0 919.4 -0.2 93
2017-10-31 05:00:00 3.3 4 Norte 10 Norte 0 919.3 -0.3 93
2017-10-31 04:00:00 3 3 Noroeste 9 Noroeste 0 919.3 -0.4 96
2017-10-31 03:00:00 2.3 3 Norte 6 Norte 0 919.6 0 95
2017-10-31 02:00:00 2.7 2 Nordeste 5 Nordeste 0 919.6 -0.1 92
2017-10-31 01:00:00 3.7 2 Noroeste 9 Este 0 919.7 0.3 92
2017-10-31 00:00:00 4.9 4 Sudeste 7 Sudeste 0 919.6 0.9 89
2017-10-30 23:00:00 6.2 2 Norte 8 Norte 0 919.7 1.5 85
2017-10-30 22:00:00 7.4 4 Noroeste 13 Norte 0 919.4 1.6 83
2017-10-30 21:00:00 8.6 6 Norte 30 Nordeste 0 918.7 1.8 78
2017-10-30 20:00:00 9.7 13 Norte 30 Norte 0 918.2 1.8 73
2017-10-30 19:00:00 10.9 12 Norte 30 Norte 0 917.8 1.5 72
2017-10-30 18:00:00 13 11 Nordeste 24 Nordeste 0 916.9 0.6 67
2017-10-30 17:00:00 15.4 12 Nordeste 28 Nordeste 0 916.4 -0.2 56
2017-10-30 16:00:00 15.6 13 Norte 27 Norte 0 916.3 -0.7 56
2017-10-30 15:00:00 17.7 9 Noroeste 28 Norte 0 916.3 -1.5 48
2017-10-30 14:00:00 16.5 12 Norte 28 Norte 0 916.6 -1.7 50
2017-10-30 13:00:00 15.5 10 Norte 25 Nordeste 0 917 -1.7 57
2017-10-30 12:00:00 13.1 7 Norte 22 Norte 0 917.8 -0.8 66
2017-10-30 11:00:00 10.9 5 Noroeste 13 Sudeste 0 918.3 0 74
2017-10-30 10:00:00 8.1 7 Sur 18 Sur 0 918.7 0.4 82
2017-10-30 09:00:00 6.3 8 Sur 14 Sur 0 918.6 0.3 87
2017-10-30 08:00:00 3.9 4 Sudoeste 9 Sudoeste 0 918.3 0 95
2017-10-30 07:00:00 4 4 Sudoeste 10 Sur 0 918.3 -0.1 94
2017-10-30 06:00:00 3.3 4 Sur 13 Sur 0 918.3 -0.5 91
2017-10-30 05:00:00 3.5 4 Sur 10 Sur 0 918.3 -0.9 93
2017-10-30 04:00:00 3.9 3 Sudoeste 10 Sur 0 918.4 -1.1 91
2017-10-30 03:00:00 4.2 5 Sur 12 Sur 0 918.8 -1 93
2017-10-30 02:00:00 4.2 4 Sur 10 Sur 0 919.2 -0.9 92
2017-10-30 01:00:00 4.7 3 Sur 8 Sur 0 919.5 -0.9 89
2017-10-30 00:00:00 5.3 5 Sur 10 Sudeste 0 919.8 -0.6 89
2017-10-29 23:00:00 6.9 3 Norte 6 Oeste 0 920.1 0 90
2017-10-29 22:00:00 8.3 3 Norte 16 Norte 0 920.4 0.5 84
2017-10-29 21:00:00 9.3 3 Norte 28 Nordeste 0 920.4 0.5 80
2017-10-29 20:00:00 10.1 5 Norte 15 Nordeste 0 920.1 0.3 75
2017-10-29 19:00:00 11.8 8 Norte 23 Norte 0 919.9 0.1 63
2017-10-29 18:00:00 13.5 11 Norte 26 Nordeste 0 919.9 0 54
2017-10-29 17:00:00 16.2 11 Norte 24 Nordeste 0 919.8 -0.7 42
2017-10-29 16:00:00 17.8 9 Norte 23 Norte 0 919.8 -1.7 34
2017-10-29 15:00:00 18.5 8 Norte 19 Norte 0 919.9 -2.5 31
2017-10-29 14:00:00 18.1 6 Noroeste 16 Norte 0 920.5 -2.4 31
2017-10-29 13:00:00 16.6 6 Norte 17 Norte 0 921.5 -1.7 34
2017-10-29 12:00:00 14.8 6 Noroeste 14 Oeste 0 922.4 -0.8 38
2017-10-29 11:00:00 11.4 2 Sudoeste 7 Sur 0 922.9 -0.1 48
2017-10-29 10:00:00 6.9 3 Este 4 Este 0 923.2 0.6 71
2017-10-29 09:00:00 2.4 2 Este 4 Este 0 923.2 0.7 84
2017-10-29 08:00:00 -0.7 0 Calma 4 Norte 0 923 0.7 95
2017-10-29 07:00:00 -0.5 0 Calma 6 Sur 0 922.6 0.1 93
2017-10-29 06:00:00 -0.1 2 Sudeste 3 Este 0 922.5 -0.2 94
2017-10-29 05:00:00 0.5 2 Oeste 6 Este 0 922.3 -1 93
2017-10-29 04:00:00 1.1 2 Sudeste 4 Sur 0 922.5 -1.1 91
2017-10-29 03:00:00 1.7 3 Oeste 8 Sudeste 0 922.7 -1.2 91
2017-10-29 02:00:00 2.5 2 Oeste 4 Sur 0 923.3 -0.6 89
2017-10-29 01:00:00 4.7 3 Sudoeste 7 Sur 0 923.9 0 87
2017-10-29 00:00:00 6.1 0 Calma 5 Noroeste 0 923.9 -0.1 83
2017-10-28 23:00:00 7.5 2 Noroeste 6 Norte 0 923.7 -0.2 80
2017-10-28 22:00:00 9.1 3 Noroeste 9 Norte 0 923.9 0.5 76
2017-10-28 21:00:00 10.3 3 Oeste 7 Nordeste 0 924 1 71
2017-10-28 20:00:00 12.2 7 Norte 20 Nordeste 0 923.9 0.9 62
2017-10-28 19:00:00 14.3 11 Nordeste 28 Norte 0 923.4 0.3 55
2017-10-28 18:00:00 17.2 13 Nordeste 25 Nordeste 0 923 -0.6 47
2017-10-28 17:00:00 18.7 10 Norte 24 Nordeste 0 923 -1.4 43
2017-10-28 16:00:00 18.6 10 Norte 26 Nordeste 0 923.1 -2 46
2017-10-28 15:00:00 18.8 8 Norte 26 Norte 0 923.6 -1.9 46
2017-10-28 14:00:00 17.5 8 Norte 24 Norte 0 924.4 -1.4 51
2017-10-28 13:00:00 15.7 13 Norte 30 Norte 0 925.1 -0.7 56
2017-10-28 12:00:00 14.1 12 Norte 26 Norte 0 925.5 -0.1 62
2017-10-28 11:00:00 13.7 4 Noroeste 11 Norte 0 925.8 0.6 67
2017-10-28 10:00:00 11.3 5 Sudeste 13 Sur 0 925.8 0.1 75
2017-10-28 09:00:00 9.1 5 Sudeste 10 Sudeste 0 925.6 0.1 82
2017-10-28 08:00:00 10.1 3 Norte 12 Noroeste 0 925.2 -0.2 82
2017-10-28 07:00:00 10 7 Noroeste 20 Noroeste 0 925.7 -0.2 81
2017-10-28 06:00:00 8.7 2 Sudeste 9 Sudeste 0 925.5 -0.9 87
2017-10-28 05:00:00 8.5 5 Noroeste 12 Sudeste 0 925.4 -1.4 86
2017-10-28 04:00:00 7.4 4 Sudeste 8 Sur 0 925.9 -1.1 90
2017-10-28 03:00:00 7.5 4 Sudeste 8 Sudeste 0 926.4 -0.7 87
2017-10-28 02:00:00 8.4 3 Sudoeste 7 Sudoeste 0 926.8 -0.3 83
2017-10-28 01:00:00 10 4 Norte 15 Norte 0 927 0 82
2017-10-28 00:00:00 9.7 4 Oeste 13 Norte 0 927.1 0.2 83
2017-10-27 23:00:00 11.1 4 Noroeste 9 Norte 0 927.1 0.8 79
2017-10-27 22:00:00 12.3 3 Noroeste 17 Norte 0 927 1.1 75
2017-10-27 21:00:00 13.8 10 Norte 24 Norte 0 926.9 1.3 70
2017-10-27 20:00:00 15 8 Norte 23 Norte 0 926.3 0.9 66
2017-10-27 19:00:00 17.4 10 Norte 33 Norte 0 925.9 0.3 57
2017-10-27 18:00:00 20.7 16 Norte 29 Norte 0 925.6 -0.7 45
2017-10-27 17:00:00 24.3 11 Noroeste 30 Noroeste 0 925.4 -1.7 28
2017-10-27 16:00:00 23.6 10 Norte 26 Norte 0 925.6 -2.4 31
2017-10-27 15:00:00 22.8 9 Norte 21 Norte 0 926.3 -2.3 32
2017-10-27 14:00:00 21.7 9 Norte 22 Norte 0 927.1 -1.8 34
2017-10-27 13:00:00 20.4 6 Norte 17 Norte 0 928 -1 36
2017-10-27 12:00:00 16 2 Sur 7 Sudoeste 0 928.6 -0.1 45
2017-10-27 11:00:00 11.1 2 Oeste 5 Este 0 928.9 0.5 59
2017-10-27 10:00:00 6 0 Calma 4 Sudoeste 0 929 0.7 78
2017-10-27 09:00:00 2.8 4 Sur 7 Sudeste 0 928.7 0.5 86
2017-10-27 08:00:00 2.5 0 Calma 5 Sur 0 928.4 0.2 89
2017-10-27 07:00:00 3.1 0 Calma 8 Sur 0 928.3 -0.2 87
2017-10-27 06:00:00 3.9 0 Calma 4 Sur 0 928.2 -0.4 85
2017-10-27 05:00:00 4.5 3 Este 4 Este 0 928.2 -0.6 82
2017-10-27 04:00:00 5.2 0 Calma 3 Nordeste 0 928.5 -0.3 81
2017-10-27 03:00:00 6 0 Calma 5 Sudeste 0 928.6 -0.1 80
2017-10-27 02:00:00 7 3 Sudoeste 4 Sudeste 0 928.8 0.5 76
2017-10-27 01:00:00 8.3 2 Norte 8 Sur 0 928.8 1 73
2017-10-27 00:00:00 9.7 0 Calma 4 Norte 0 928.7 1.2 68
2017-10-26 23:00:00 11.1 2 Noroeste 4 Norte 0 928.3 1.6 61
2017-10-26 22:00:00 13.2 0 Calma 3 Norte 0 927.8 2 52
2017-10-26 21:00:00 15.9 0 Calma 5 Noroeste 0 927.5 2 44
2017-10-26 20:00:00 19.3 2 Oeste 9 Norte 0 926.7 1.3 38
2017-10-26 19:00:00 23.5 4 Norte 13 Nordeste 0 925.8 0.4 27
2017-10-26 18:00:00 27.6 5 Norte 12 Norte 0 925.5 -0.3 21
2017-10-26 17:00:00 28.2 6 Norte 16 Este 0 925.4 -1 19
2017-10-26 16:00:00 28.5 4 Oeste 10 Noroeste 0 925.4 -1.7 20
2017-10-26 15:00:00 27.1 3 Este 11 Noroeste 0 925.8 -1.4 23
2017-10-26 14:00:00 25 4 Oeste 9 Sur 0 926.4 -0.8 27
2017-10-26 13:00:00 22 6 Sur 11 Sudeste 0 927.1 0.2 34
2017-10-26 12:00:00 18.4 5 Sudoeste 10 Sudeste 0 927.2 0.5 41
2017-10-26 11:00:00 14.8 5 Sur 12 Sudeste 0 927.2 0.9 53
2017-10-26 10:00:00 10.5 9 Sudeste 14 Sudeste 0 926.9 0.7 67
2017-10-26 09:00:00 4.6 4 Sudeste 8 Este 0 926.7 1 85
2017-10-26 08:00:00 4.8 4 Sudeste 6 Sudeste 0 926.3 0.6 83
2017-10-26 07:00:00 5.7 0 Calma 3 Norte 0 926.2 0.4 82
2017-10-26 06:00:00 7.5 4 Sudeste 12 Sudeste 0 925.7 -0.2 76
2017-10-26 05:00:00 7.3 7 Sudeste 10 Sudeste 0 925.7 -0.2 75
2017-10-26 04:00:00 7.4 2 Sur 10 Sudeste 0 925.8 0 77
2017-10-26 03:00:00 8.7 5 Sudeste 10 Sudeste 0 925.9 0.2 72
2017-10-26 02:00:00 10.1 8 Sudeste 11 Sudeste 0 925.9 0.6 64
2017-10-26 01:00:00 9.9 5 Sudeste 8 Sudeste 0 925.8 1.1 68
2017-10-26 00:00:00 12 3 Sur 10 Sudeste 0 925.7 1.6 61
2017-10-25 23:00:00 12.6 5 Sudeste 10 Sudeste 0 925.3 1.9 54
2017-10-25 22:00:00 14.7 6 Sudoeste 12 Norte 0 924.7 1.8 50
2017-10-25 21:00:00 18.7 4 Noroeste 23 Nordeste 0 924.1 1.7 38
2017-10-25 20:00:00 20.8 7 Este 24 Este 0 923.4 1.1 33
2017-10-25 19:00:00 24.6 2 Nordeste 8 Norte 0 922.9 0.6 26
2017-10-25 18:00:00 28.9 3 Oeste 7 Noroeste 0 922.4 -0.3 20
2017-10-25 17:00:00 28.8 7 Sudoeste 16 Sudoeste 0 922.3 -1.2 19
2017-10-25 16:00:00 28.7 8 Sur 16 Sudeste 0 922.3 -1.9 19
2017-10-25 15:00:00 28.1 7 Sur 19 Sur 0 922.7 -2 21
2017-10-25 14:00:00 25.3 5 Sudoeste 9 Sudoeste 0 923.5 -1.3 27
2017-10-25 13:00:00 21.4 5 Sudoeste 10 Oeste 0 924.2 -0.5 35
2017-10-25 12:00:00 17.7 5 Sur 10 Sur 0 924.7 0.4 44
2017-10-25 11:00:00 14.6 8 Sudeste 16 Sudeste 0 924.8 0.8 51
2017-10-25 10:00:00 9.9 9 Sudeste 12 Sudeste 0 924.7 0.6 67
2017-10-25 09:00:00 3.9 4 Sur 6 Sudeste 0 924.3 0.3 86
2017-10-25 08:00:00 3.4 3 Sudoeste 7 Sur 0 924 0.1 90
2017-10-25 07:00:00 3.4 0 Calma 3 Nordeste 0 924.1 -0.2 89
2017-10-25 06:00:00 3.8 2 Sudoeste 6 Sudeste 0 924 -0.3 89
2017-10-25 05:00:00 4.5 4 Sudeste 5 Sudeste 0 923.9 -0.3 84
2017-10-25 04:00:00 5.2 0 Calma 4 Este 0 924.3 0.4 81
2017-10-25 03:00:00 5.9 3 Nordeste 5 Oeste 0 924.3 0.3 78
2017-10-25 02:00:00 7 0 Calma 8 Sur 0 924.2 0.7 74
2017-10-25 01:00:00 8.2 3 Sur 7 Sudoeste 0 923.9 0.7 69
2017-10-25 00:00:00 9.5 3 Noroeste 13 Sur 0 924 1.1 66